createdAt,value
2018-08-16T00:00:45.944Z,9.53
2018-08-16T00:03:26.581Z,9.63
2018-08-16T00:06:07.205Z,10.47
2018-08-16T00:08:48.537Z,10.07
2018-08-16T00:11:29.940Z,9.83
2018-08-16T00:14:13.325Z,9.87
2018-08-16T00:16:53.936Z,9.90
2018-08-16T00:19:34.518Z,9.80
2018-08-16T00:22:16.601Z,9.17
2018-08-16T00:24:57.059Z,9.27
2018-08-16T00:27:37.735Z,10.07
2018-08-16T00:30:19.722Z,9.63
2018-08-16T00:33:00.252Z,9.63
2018-08-16T00:35:43.277Z,10.77
2018-08-16T00:38:23.746Z,10.17
2018-08-16T00:41:04.401Z,10.27
2018-08-16T00:43:46.196Z,10.27
2018-08-16T00:46:26.750Z,10.10
2018-08-16T00:49:07.489Z,10.67
2018-08-16T00:51:47.873Z,11.23
2018-08-16T00:54:28.509Z,10.73
2018-08-16T00:57:10.260Z,10.63
2018-08-16T00:59:51.780Z,11.00
2018-08-16T01:02:32.247Z,10.80
2018-08-16T01:05:14.925Z,11.77
2018-08-16T01:07:55.320Z,11.80
2018-08-16T01:10:36.147Z,11.10
2018-08-16T01:13:16.744Z,10.83
2018-08-16T01:15:57.317Z,11.57
2018-08-16T01:18:40.100Z,10.90
2018-08-16T01:21:20.690Z,11.73
2018-08-16T01:24:01.326Z,11.07
2018-08-16T01:26:44.129Z,10.67
2018-08-16T01:29:24.831Z,10.40
2018-08-16T01:32:05.437Z,10.40
2018-08-16T01:34:46.701Z,10.27
2018-08-16T01:37:27.226Z,10.07
2018-08-16T01:40:08.590Z,10.07
2018-08-16T01:42:49.159Z,9.67
2018-08-16T01:45:29.609Z,9.73
2018-08-16T01:48:13.378Z,9.87
2018-08-16T01:50:53.928Z,9.90
2018-08-16T01:53:34.479Z,9.60
2018-08-16T01:56:15.955Z,9.67
2018-08-16T01:58:56.963Z,10.30
2018-08-16T02:01:37.401Z,9.80
2018-08-16T02:04:18.895Z,10.87
2018-08-16T02:06:59.728Z,11.00
2018-08-16T02:09:41.432Z,10.47
2018-08-16T02:12:22.051Z,10.83
2018-08-16T02:15:02.601Z,10.50
2018-08-16T02:43:45.350Z,10.33
2018-08-16T02:46:25.880Z,10.50
2018-08-16T02:49:07.096Z,10.87
2018-08-16T02:51:47.664Z,10.63
2018-08-16T02:54:28.148Z,10.27
2018-08-16T02:57:08.675Z,10.57
2018-08-16T02:59:49.356Z,11.00
2018-08-16T03:02:29.928Z,10.07
2018-08-16T03:05:10.504Z,10.10
2018-08-16T03:07:51.084Z,10.73
2018-08-16T03:10:34.584Z,10.03
2018-08-16T03:13:15.196Z,10.93
2018-08-16T03:15:55.760Z,11.80
2018-08-16T03:18:37.692Z,11.17
2018-08-16T03:21:18.138Z,12.20
2018-08-16T03:23:58.725Z,12.07
2018-08-16T03:26:39.172Z,12.63
2018-08-16T03:29:19.797Z,12.57
2018-08-16T03:32:01.448Z,12.67
2018-08-16T03:34:42.036Z,12.00
2018-08-16T03:37:22.718Z,11.87
2018-08-16T03:40:05.801Z,11.60
2018-08-16T03:42:46.252Z,12.37
2018-08-16T03:45:26.678Z,12.53
2018-08-16T03:48:07.491Z,12.90
2018-08-16T03:50:48.196Z,12.47
2018-08-16T03:53:28.647Z,11.17
2018-08-16T03:56:09.199Z,10.90
2018-08-16T03:58:49.680Z,11.30
2018-08-16T04:01:30.001Z,10.67
2018-08-16T04:04:10.632Z,10.53
2018-08-16T04:06:51.181Z,11.13
2018-08-16T04:09:32.944Z,11.17
2018-08-16T04:12:13.524Z,10.03
2018-08-16T04:14:54.103Z,10.30
2018-08-16T04:17:37.609Z,9.70
2018-08-16T04:20:18.093Z,9.67
2018-08-16T04:22:58.711Z,8.97
2018-08-16T04:25:39.165Z,9.07
2018-08-16T04:28:19.648Z,8.33
2018-08-16T04:31:01.528Z,8.43
2018-08-16T04:33:41.967Z,8.77
2018-08-16T04:36:22.856Z,10.70
2018-08-16T04:39:06.889Z,10.67
2018-08-16T04:41:47.311Z,10.53
2018-08-16T04:44:27.783Z,9.87
2018-08-16T04:47:08.540Z,9.67
2018-08-16T04:49:48.961Z,10.23
2018-08-16T04:52:29.453Z,10.30
2018-08-16T04:55:10.725Z,10.50
2018-08-16T04:57:51.137Z,10.60
2018-08-16T05:00:34.600Z,10.80
2018-08-16T05:03:15.013Z,10.07
2018-08-16T05:05:55.477Z,11.00
2018-08-16T05:08:37.341Z,9.90
2018-08-16T05:11:17.836Z,11.40
2018-08-16T05:13:58.339Z,10.77
2018-08-16T05:16:39.436Z,11.77
2018-08-16T05:19:19.912Z,10.90
2018-08-16T05:22:01.585Z,10.50
2018-08-16T05:24:42.047Z,10.50
2018-08-16T05:27:22.650Z,11.57
2018-08-16T05:30:06.964Z,11.57
2018-08-16T05:32:47.864Z,11.47
2018-08-16T05:35:28.368Z,10.70
2018-08-16T05:38:08.860Z,11.47
2018-08-16T05:40:49.356Z,11.23
2018-08-16T05:43:29.695Z,10.87
2018-08-16T05:46:10.114Z,10.73
2018-08-16T05:48:50.551Z,10.77
2018-08-16T05:51:32.965Z,10.70
2018-08-16T05:54:13.486Z,10.87
2018-08-16T05:56:54.083Z,10.57
2018-08-16T05:59:35.726Z,10.80
2018-08-16T06:02:16.125Z,11.50
2018-08-16T06:04:56.648Z,11.33
2018-08-16T06:07:37.739Z,11.70
2018-08-16T06:10:18.216Z,10.67
2018-08-16T06:12:58.768Z,10.20
2018-08-16T06:15:39.191Z,11.80
2018-08-16T06:18:19.778Z,12.60
2018-08-16T06:21:01.599Z,12.57
2018-08-16T06:23:42.061Z,11.90
2018-08-16T06:26:22.735Z,10.87
2018-08-16T06:29:07.733Z,12.13
2018-08-16T06:31:48.326Z,12.60
2018-08-16T06:34:28.728Z,12.27
2018-08-16T06:37:09.378Z,11.77
2018-08-16T06:39:50.883Z,12.53
2018-08-16T06:42:32.553Z,11.53
2018-08-16T06:45:13.242Z,11.70
2018-08-16T06:47:53.892Z,12.73
2018-08-16T06:50:36.404Z,13.67
2018-08-16T06:53:17.125Z,11.90
2018-08-16T06:55:57.726Z,13.50
2018-08-16T06:58:42.853Z,12.53
2018-08-16T07:01:23.523Z,13.30
2018-08-16T07:04:06.035Z,13.17
2018-08-16T07:06:46.535Z,12.77
2018-08-16T07:09:27.105Z,11.53
2018-08-16T07:12:07.902Z,10.87
2018-08-16T07:14:48.372Z,10.90
2018-08-16T07:17:29.172Z,11.63
2018-08-16T07:20:09.964Z,11.37
2018-08-16T07:22:50.516Z,12.03
2018-08-16T07:25:32.217Z,11.40
2018-08-16T07:28:12.659Z,10.27
2018-08-16T07:30:53.219Z,11.97
2018-08-16T07:33:36.051Z,11.87
2018-08-16T07:36:16.765Z,12.03
2018-08-16T07:38:57.693Z,12.67
2018-08-16T07:41:38.552Z,12.70
2018-08-16T07:44:19.104Z,14.63
2018-08-16T07:46:59.648Z,12.97
2018-08-16T07:49:40.072Z,12.87
2018-08-16T07:52:20.488Z,11.30
2018-08-16T07:55:02.355Z,12.47
2018-08-16T07:57:42.951Z,10.73
2018-08-16T08:00:38.451Z,10.27
2018-08-16T08:03:18.837Z,10.77
2018-08-16T08:05:59.281Z,9.23
2018-08-16T08:08:39.772Z,7.40
2018-08-16T08:11:20.284Z,8.30
2018-08-16T08:14:00.736Z,8.63
2018-08-16T08:16:41.272Z,8.40
2018-08-16T08:19:21.565Z,7.57
2018-08-16T08:22:03.427Z,7.93
2018-08-16T08:24:43.834Z,8.40
2018-08-16T08:27:24.392Z,7.10
2018-08-16T08:30:08.296Z,6.70
2018-08-16T08:32:48.852Z,6.90
2018-08-16T08:35:29.372Z,6.80
2018-08-16T08:38:15.231Z,5.43
2018-08-16T08:40:55.608Z,5.63
2018-08-16T08:43:53.156Z,6.13
2018-08-16T08:46:35.401Z,6.40
2018-08-16T08:49:15.905Z,6.00
2018-08-16T08:51:56.423Z,6.17
2018-08-16T08:58:57.364Z,5.57
2018-08-16T09:01:38.438Z,3.70
2018-08-16T09:04:18.818Z,3.00
2018-08-16T09:06:59.402Z,3.07
2018-08-16T09:09:54.124Z,2.77
2018-08-16T09:12:51.883Z,3.43
2018-08-16T09:15:46.740Z,3.50
2018-08-16T09:18:27.364Z,3.63
2018-08-16T09:21:08.941Z,3.93
2018-08-16T09:23:49.525Z,4.73
2018-08-16T09:26:35.343Z,4.00
2018-08-16T09:30:39.876Z,3.50
2018-08-16T09:34:28.040Z,4.60
2018-08-16T09:37:08.576Z,4.20
2018-08-16T09:39:49.427Z,4.30
2018-08-16T09:42:30.008Z,4.13
2018-08-16T09:45:27.672Z,3.73
2018-08-16T09:48:25.804Z,4.10
2018-08-16T09:51:06.405Z,4.50
2018-08-16T09:53:47.052Z,4.40
2018-08-16T09:56:27.892Z,4.87
2018-08-16T09:59:09.547Z,4.00
2018-08-16T10:01:50.136Z,3.87
2018-08-16T10:04:30.731Z,4.03
2018-08-16T10:07:13.964Z,4.23
2018-08-16T10:09:54.572Z,4.80
2018-08-16T10:12:42.517Z,3.70
2018-08-16T10:15:23.032Z,5.37
2018-08-16T10:18:03.606Z,4.60
2018-08-16T10:20:45.764Z,4.87
2018-08-16T10:23:26.808Z,3.83
2018-08-16T10:26:07.768Z,3.73
2018-08-16T10:28:49.008Z,3.80
2018-08-16T10:31:29.421Z,3.90
2018-08-16T10:34:12.268Z,4.60
2018-08-16T10:36:52.658Z,5.87
2018-08-16T10:39:33.260Z,5.30
2018-08-16T10:42:15.225Z,5.47
2018-08-16T10:44:55.767Z,4.57
2018-08-16T10:47:36.253Z,3.77
2018-08-16T10:50:16.729Z,4.13
2018-08-16T10:52:57.220Z,4.30
2018-08-16T10:55:39.311Z,4.57
2018-08-16T10:58:20.111Z,4.10
2018-08-16T11:01:00.599Z,4.03
2018-08-16T11:03:43.288Z,4.37
2018-08-16T11:06:23.843Z,4.10
2018-08-16T11:09:07.171Z,3.80
2018-08-16T11:11:47.547Z,3.40
2018-08-16T11:14:28.056Z,3.60
2018-08-16T11:17:09.323Z,3.63
2018-08-16T11:19:49.916Z,3.30
2018-08-16T11:22:30.335Z,3.10
2018-08-16T11:25:13.441Z,2.53
2018-08-16T11:27:53.932Z,3.20
2018-08-16T11:30:34.411Z,3.17
2018-08-16T11:33:15.500Z,2.90
2018-08-16T11:35:56.032Z,3.00
2018-08-16T11:38:36.579Z,3.30
2018-08-16T11:41:16.858Z,3.40
2018-08-16T11:43:57.392Z,4.20
2018-08-16T11:46:39.740Z,4.33
2018-08-16T11:49:20.198Z,3.43
2018-08-16T11:52:00.717Z,4.13
2018-08-16T11:54:43.579Z,4.20
2018-08-16T11:57:24.490Z,3.97
2018-08-16T12:00:05.276Z,4.13
2018-08-16T12:02:45.796Z,3.50
2018-08-16T12:05:26.306Z,3.83
2018-08-16T12:08:06.707Z,3.70
2018-08-16T12:10:47.180Z,3.53
2018-08-16T12:13:27.468Z,4.20
2018-08-16T12:16:09.412Z,4.03
2018-08-16T12:18:49.869Z,3.57
2018-08-16T12:21:30.520Z,3.87
2018-08-16T12:24:13.671Z,3.50
2018-08-16T12:26:54.372Z,3.87
2018-08-16T12:29:34.983Z,4.27
2018-08-16T12:32:15.636Z,4.67
2018-08-16T12:34:56.213Z,4.40
2018-08-16T12:37:36.783Z,3.90
2018-08-16T12:40:17.440Z,4.50
2018-08-16T12:42:57.939Z,4.00
2018-08-16T12:45:39.926Z,4.00
2018-08-16T12:48:20.508Z,3.80
2018-08-16T12:51:01.216Z,3.80
2018-08-16T12:53:43.630Z,4.17
2018-08-16T12:56:23.756Z,4.10
2018-08-16T12:59:04.424Z,3.47
2018-08-16T13:01:45.103Z,4.00
2018-08-16T13:04:25.679Z,4.17
2018-08-16T13:07:06.167Z,4.03
2018-08-16T13:09:49.716Z,4.13
2018-08-16T13:12:30.488Z,3.65
2018-08-16T13:15:13.464Z,4.73
2018-08-16T13:17:53.792Z,3.63
2018-08-16T13:20:34.117Z,3.97
2018-08-16T13:23:15.185Z,4.37
2018-08-16T13:25:55.616Z,4.10
2018-08-16T13:28:36.195Z,3.67
2018-08-16T13:31:16.858Z,3.37
2018-08-16T13:33:57.366Z,3.80
2018-08-16T13:36:37.955Z,3.40
2018-08-16T13:39:18.407Z,4.27
2018-08-16T13:41:58.999Z,3.63
2018-08-16T13:44:42.731Z,4.00
2018-08-16T13:47:23.349Z,3.83
2018-08-16T13:50:03.891Z,3.37
2018-08-16T13:52:45.558Z,12.37
2018-08-16T13:55:26.816Z,8.50
2018-08-16T13:58:07.424Z,4.40
2018-08-16T14:00:47.860Z,3.80
2018-08-16T14:03:28.303Z,3.57
2018-08-16T14:06:10.223Z,4.33
2018-08-16T14:08:50.703Z,5.23
2018-08-16T14:11:31.145Z,4.53
2018-08-16T14:14:14.916Z,4.63
2018-08-16T14:16:55.488Z,3.90
2018-08-16T14:19:36.000Z,4.17
2018-08-16T14:22:17.379Z,3.93
2018-08-16T14:24:57.944Z,4.13
2018-08-16T14:27:39.579Z,3.93
2018-08-16T14:30:20.181Z,4.13
2018-08-16T14:33:00.773Z,4.10
2018-08-16T14:35:44.256Z,4.87
2018-08-16T14:38:24.663Z,5.37
2018-08-16T14:41:05.284Z,4.07
2018-08-16T14:43:45.885Z,4.00
2018-08-16T14:46:26.412Z,3.37
2018-08-16T14:49:06.828Z,3.43
2018-08-16T14:51:47.379Z,3.80
2018-08-16T14:54:28.040Z,3.40
2018-08-16T14:57:09.653Z,3.53
2018-08-16T14:59:50.274Z,3.90
2018-08-16T15:02:31.113Z,3.90
2018-08-16T15:05:14.271Z,3.70
2018-08-16T15:07:54.834Z,4.50
2018-08-16T15:10:35.442Z,3.73
2018-08-16T15:13:16.178Z,3.60
2018-08-16T15:15:56.663Z,3.73
2018-08-16T15:18:37.230Z,3.57
2018-08-16T15:21:17.720Z,3.77
2018-08-16T15:23:58.303Z,3.00
2018-08-16T15:26:40.218Z,3.70
2018-08-16T15:29:21.136Z,6.23
2018-08-16T15:32:01.655Z,4.03
2018-08-16T15:34:46.366Z,4.30
2018-08-16T15:37:26.956Z,10.67
2018-08-16T15:40:07.637Z,3.50
2018-08-16T15:42:48.875Z,3.53
2018-08-16T15:45:29.508Z,3.70
2018-08-16T15:48:13.300Z,4.00
2018-08-16T15:50:53.672Z,3.07
2018-08-16T15:53:34.031Z,3.80
2018-08-16T15:57:08.327Z,3.33
2018-08-16T15:59:48.845Z,3.30
2018-08-16T16:02:29.223Z,3.53
2018-08-16T16:05:10.583Z,3.57
2018-08-16T16:07:51.038Z,3.37
2018-08-16T16:10:31.463Z,3.40
2018-08-16T16:13:15.205Z,3.33
2018-08-16T16:19:01.087Z,3.60
2018-08-16T16:21:43.644Z,3.90
2018-08-16T16:24:24.140Z,3.77
2018-08-16T16:27:04.655Z,4.40
2018-08-16T16:29:46.419Z,4.27
2018-08-16T16:32:26.977Z,3.43
2018-08-16T16:35:07.619Z,3.27
2018-08-16T16:37:48.129Z,3.40
2018-08-16T16:40:28.686Z,3.57
2018-08-16T16:43:11.223Z,3.53
2018-08-16T16:45:51.880Z,3.10
2018-08-16T16:48:32.385Z,3.50
2018-08-16T16:51:14.914Z,4.40
2018-08-16T16:53:55.457Z,3.37
2018-08-16T16:56:36.104Z,4.10
2018-08-16T16:59:16.627Z,4.20
2018-08-16T17:01:58.414Z,3.90
2018-08-16T17:04:38.991Z,4.43
2018-08-16T17:07:19.620Z,4.40
2018-08-16T17:10:00.160Z,4.53
2018-08-16T17:12:42.296Z,4.27
2018-08-16T17:15:22.676Z,5.50
2018-08-16T17:18:03.114Z,5.20
2018-08-16T17:20:45.283Z,5.10
2018-08-16T17:23:25.674Z,4.90
2018-08-16T17:26:06.227Z,5.17
2018-08-16T17:28:46.784Z,4.83
2018-08-16T17:31:27.200Z,5.33
2018-08-16T17:34:07.699Z,5.50
2018-08-16T17:36:48.306Z,5.20
2018-08-16T17:39:28.810Z,4.97
2018-08-16T17:42:10.658Z,4.73
2018-08-16T17:44:51.015Z,4.40
2018-08-16T17:47:31.735Z,4.30
2018-08-16T17:50:14.809Z,4.40
2018-08-16T17:52:55.280Z,4.13
2018-08-16T17:55:35.757Z,4.20
2018-08-16T17:58:16.392Z,4.20
2018-08-16T18:00:56.987Z,3.73
2018-08-16T18:03:37.436Z,5.07
2018-08-16T18:06:17.884Z,5.00
2018-08-16T18:08:58.372Z,4.67
2018-08-16T18:11:38.916Z,5.00
2018-08-16T18:14:19.514Z,4.37
2018-08-16T18:17:00.926Z,3.93
2018-08-16T18:19:42.231Z,4.37
2018-08-16T18:22:22.720Z,4.00
2018-08-16T18:25:03.303Z,4.83
2018-08-16T18:27:44.725Z,4.40
2018-08-16T18:30:25.349Z,4.57
2018-08-16T18:33:05.852Z,10.97
2018-08-16T18:35:46.479Z,3.97
2018-08-16T18:38:26.903Z,7.67
2018-08-16T18:41:07.415Z,5.67
2018-08-16T18:43:47.963Z,4.23
2018-08-16T18:46:28.360Z,4.50
2018-08-16T18:49:09.038Z,13.33
2018-08-16T18:51:49.677Z,7.27
2018-08-16T18:54:42.395Z,5.30
2018-08-16T18:57:22.998Z,5.13
2018-08-16T19:00:03.606Z,6.20
2018-08-16T19:02:45.402Z,6.13
2018-08-16T19:05:26.001Z,5.23
2018-08-16T19:08:06.844Z,4.90
2018-08-16T19:10:48.197Z,5.50
2018-08-16T19:13:28.825Z,5.87
2018-08-16T19:16:16.265Z,5.47
2018-08-16T19:18:56.749Z,7.80
2018-08-16T19:21:37.349Z,8.60
2018-08-16T19:24:20.745Z,9.87
2018-08-16T19:27:01.555Z,9.83
2018-08-16T19:29:44.178Z,10.80
2018-08-16T19:32:24.720Z,12.10
2018-08-16T19:35:05.540Z,10.77
2018-08-16T19:37:47.357Z,11.33
2018-08-16T19:40:27.984Z,10.80
2018-08-16T19:43:08.642Z,9.87
2018-08-16T19:45:49.096Z,10.33
2018-08-16T19:48:29.707Z,9.87
2018-08-16T19:54:08.429Z,11.00
2018-08-16T19:56:49.130Z,10.97
2018-08-16T19:59:29.875Z,10.90
2018-08-16T20:02:11.520Z,11.07
2018-08-16T20:04:52.085Z,10.93
2018-08-16T20:10:44.546Z,11.60
2018-08-16T20:13:25.205Z,11.47
2018-08-16T20:16:05.824Z,12.07
2018-08-16T20:18:47.472Z,11.67
2018-08-16T20:21:28.284Z,12.13
2018-08-16T20:24:08.875Z,12.50
2018-08-16T20:26:49.445Z,10.63
2018-08-16T20:29:29.889Z,10.50
2018-08-16T20:32:11.710Z,11.47
2018-08-16T20:34:52.205Z,10.80
2018-08-16T20:37:32.708Z,10.10
2018-08-16T20:40:14.696Z,9.97
2018-08-16T20:42:55.271Z,10.80
2018-08-16T20:45:35.707Z,10.00
2018-08-16T20:48:17.496Z,10.27
2018-08-16T20:51:12.281Z,10.47
2018-08-16T20:53:53.907Z,10.83
2018-08-16T20:56:34.207Z,10.60
2018-08-16T20:59:16.859Z,10.10
2018-08-16T21:01:57.235Z,10.00
2018-08-16T21:04:37.568Z,9.77
2018-08-16T21:07:17.948Z,9.73
2018-08-16T21:09:58.434Z,9.43
2018-08-16T21:12:39.001Z,10.63
2018-08-16T21:15:19.524Z,10.63
2018-08-16T21:18:00.063Z,10.30
2018-08-16T21:20:40.343Z,10.43
2018-08-16T21:23:20.642Z,8.97
2018-08-16T21:26:01.175Z,9.50
2018-08-16T21:28:42.975Z,8.90
2018-08-16T21:31:23.543Z,9.10
2018-08-16T21:34:04.079Z,10.80
2018-08-16T21:36:45.774Z,11.60
2018-08-16T21:39:26.255Z,10.93
2018-08-16T21:42:06.544Z,11.70
2018-08-16T21:44:47.773Z,11.30
2018-08-16T21:47:28.404Z,11.27
2018-08-16T21:50:09.228Z,11.37
2018-08-16T21:52:49.699Z,10.77
2018-08-16T21:55:30.101Z,10.43
2018-08-16T21:58:12.033Z,10.53
2018-08-16T22:00:54.735Z,10.50
2018-08-16T22:03:35.067Z,11.00
2018-08-16T22:06:32.519Z,11.27
2018-08-16T22:09:14.905Z,9.93
2018-08-16T22:11:55.489Z,8.70
2018-08-16T22:14:35.946Z,8.43
2018-08-16T22:17:17.924Z,8.17
2018-08-16T22:19:58.436Z,8.00
2018-08-16T22:22:38.916Z,7.10
2018-08-16T22:25:19.375Z,6.40
2018-08-16T22:27:59.896Z,7.77
2018-08-16T22:30:40.427Z,7.80
2018-08-16T22:33:20.893Z,8.17
2018-08-16T22:36:01.237Z,9.07
2018-08-16T22:38:42.020Z,8.90
2018-08-16T22:41:22.559Z,10.60
2018-08-16T22:44:03.088Z,9.67
2018-08-16T22:46:45.259Z,10.00
2018-08-16T22:49:25.742Z,10.77
2018-08-16T22:52:06.264Z,8.57
2018-08-16T22:54:48.127Z,8.03
2018-08-16T22:57:28.619Z,9.03
2018-08-16T23:00:10.731Z,9.17
2018-08-16T23:02:52.020Z,9.27
2018-08-16T23:05:32.337Z,8.90
2018-08-16T23:08:13.899Z,8.73
2018-08-16T23:10:54.466Z,10.50
2018-08-16T23:13:34.976Z,8.77
2018-08-16T23:16:16.929Z,9.00
2018-08-16T23:18:57.294Z,9.10
2018-08-16T23:21:37.872Z,9.00
2018-08-16T23:24:18.367Z,9.70
2018-08-16T23:26:58.948Z,9.87
2018-08-16T23:29:39.451Z,9.60
2018-08-16T23:32:19.738Z,10.27
2018-08-16T23:35:00.219Z,11.13
2018-08-16T23:37:40.622Z,10.47
2018-08-16T23:40:21.167Z,10.17
2018-08-16T23:43:01.837Z,10.30
2018-08-16T23:45:43.211Z,10.33
2018-08-16T23:48:30.767Z,11.47
2018-08-16T23:51:12.313Z,11.07
2018-08-16T23:53:52.663Z,11.33
2018-08-16T23:56:33.157Z,10.77
2018-08-16T23:59:15.408Z,8.80
